Racecast

Elizabeth Roberts

D1 Elite (CO) · 12 · CO D3A3A · Compare head to head

Athlete rating 130.6 2026 TF season
Best race 137.3 XC
Races 42
Seasons 5 2022 — 2026

RankedNation #3521·ID #39·Team #5 ?

Speed rating — all races

Cross Country

XC speed rating

2023 XC 131.1

Resurrection Christian (CO) · Grade 10

Date Meet Event Result Place Rating Difficulty PR/SR Flags
2023-11-18 Coyote Run Golf Course at Leisure World 5000m 18:59 5th · 1st on team 134.4 +0.029 ★PR ★CR SR CSR RSR
2023-10-28 Norris Penrose Event Center 5000m 19:50.3 21st · 1st on team 131.3 +0.067 CSR
2023-10-19 Monfort Park 5000m 19:09.1 5th · 1st on team 133.1 +0.019 PR ★CR SR CSR RSR
2023-09-03 Little America Golf Course 5000m 20:58.4 31st · 1st on team 125.7 +0.065 SR CSR RSR
2023-08-19 Berthoud High School 3218m 14:41.4 30th · 5th on team +0.008 ★PR ★CR SR CSR

2022 XC 128.6

Resurrection Christian (CO) · Grade 9

Date Meet Event Result Place Rating Difficulty PR/SR Flags
2022-11-19 Coyote Run Golf Course at Leisure World 5000m 19:21.9 10th · 1st on team 132.6 +0.029 CR CSR
2022-10-29 Norris Penrose Event Center 5000m 19:13.6 9th · 1st on team 137.3 +0.067 ★CR ★R CSR RSR
2022-10-20 Monfort Park 5000m 19:12 4th · 1st on team 132.8 +0.019 PR CR SR CSR
2022-10-07 Bear Creek Regional Park 5000m 22:10.2 35th · 1st on team 116.5 +0.043 ★CR CSR
2022-09-17 Lyons Middle/High School 5000m 19:38.4 2nd · 1st on team 132.9 +0.046 ★CR CSR
2022-09-09 Riverside Park 5000m 21:32.7 5th · 3rd on team 115.0 +0.005 ★CR CSR
2022-09-03 Little America Golf Course 5000m 19:23.2 5th · 1st on team 135.7 +0.065 PR ★CR R SR CSR RSR
2022-08-20 Spring Canyon Park 5000m 20:26 10th · 1st on team 125.9 +0.037 PR ★CR R SR CSR RSR

Track & Field

TF speed rating

2026 TF 129.4

D1 Elite (CO) · Grade 12

Date Meet Event Result Place Rating Difficulty PR/SR Flags
2026-02-19 Simplot Games 1600m 5:14.42 33rd · 2nd on team 131.5 -0.024 SR RSR
2026-02-19 Simplot Games 1600m 5:24.59 66th · 4th on team 127.3 -0.024

2025 TF 129.4

Unattached (TX) · Grade 11

Date Meet Event Result Place Rating Difficulty PR/SR Flags
2025-03-22 SL Carroll Texas Distance Festival 1600m 5:13.65 30th · 30th on team 130.5 -0.029 SR RSR
2025-02-22 Simplot Games 1600m 5:18.05 32nd · 3rd on team 129.8 -0.024 SR RSR
2025-02-22 Simplot Games 1600m 5:16.41 26th · 1st on team 130.5 -0.024 SR RSR
2025-02-08 Colorado Elite Track Classic #1 1600m 5:29.49 13th · 2nd on team 126.7 -0.009 SR RSR
2025-02-08 Colorado Elite Track Classic #1 800m 2:25.2 6th · 1st on team 129.3 -0.009 SR RSR

2024 TF 130.3

Resurrection Christian (CO) · Grade 10

Date Meet Event Result Place Rating Difficulty PR/SR Flags
2024-05-18 COLORADO STATE CHAMPIONSHIPS 800m 2:21.75 8th · 1st on team 132.9 -0.011
2024-05-18 COLORADO STATE CHAMPIONSHIPS 3200m 11:08.82 4th · 1st on team 135.3 -0.011 ★PR SR RSR
2024-05-18 COLORADO STATE CHAMPIONSHIPS 1600m 5:17.1 12th · 1st on team 132.1 -0.011
2024-05-11 Teddy's Last Chance Qualifier 800m 2:21.06 9th · 1st on team 132.4 -0.014 ★PR SR
2024-05-09 Wizard's Last Stand 1600m 5:13.05 1st · 1st on team 133.7 -0.008 ★PR SR RSR
2024-04-29 Randall Hess Roughrider Invitational 800m 2:23.42 5th · 1st on team 130.3 -0.014 PR SR
2024-04-13 The Pomona Invitational 1600m 5:18.65 17th · 1st on team 130.9 -0.011 SR RSR
2024-04-04 Altitude Running Invitational 3200m 11:56.97 5th · 1st on team 126.3 -0.009 SR
2024-03-30 University Bulldog Invitational 1600m 5:25.76 2nd · 1st on team 127.7 -0.012
2024-03-30 University Bulldog Invitational 800m 2:31.11 3rd · 1st on team 123.9 -0.012 SR
2024-03-22 Race results → 1600m 5:18.95 1st · 1st on team 128.1 SR RSR

2023 TF 128.5

Resurrection Christian (CO) · Grade 9

Date Meet Event Result Place Rating Difficulty PR/SR Flags
2023-05-20 Colorado 3A State Championships 1600m 5:17.76 10th · 1st on team 131.3 -0.011
2023-05-20 Colorado 3A State Championships 3200m 11:31.36 6th · 1st on team 129.8 -0.011
2023-04-29 Ram Charger Invitational 1600m 5:15.08 2nd · 1st on team 132.9 -0.011 PR SR RSR
2023-04-28 Longmont Invitational 800m 2:26.77 4th · 1st on team 128.6 -0.015 PR SR
2023-04-15 The Pomona Invitational 1600m 5:31.15 20th · 1st on team 126.4 -0.011
2023-04-08 Fightin' Red Invitational 1600m 5:18.62 1st · 1st on team 131.4 -0.008 PR SR
2023-04-08 Fightin' Red Invitational 800m 2:30.43 3rd · 1st on team 125.2 -0.008 PR SR
2023-04-01 Altitude Running Invitational 3200m 11:27.18 6th · 1st on team 131.5 -0.009 PR SR RSR
2023-03-10 Max Marr Invitational 1600m 5:33.35 5th · 2nd on team 126.1 -0.007 PR SR RSR
2023-01-19 Colorado Mines HS Indoor Series #4 300m 50.74 30th · 2nd on team -0.012 ★PR SR
2023-01-19 Colorado Mines HS Indoor Series #4 800m 2:36.75 2nd · 1st on team 122.1 -0.012 PR SR RSR